sensor_id;sensor_type;location;lat;lon;timestamp;pressure;altitude;pressure_sealevel;temperature;humidity
13604;BME280;24578;48.264;11.436;2024-02-15T00:03:36;96648.16;;;6.70;100.00
13604;BME280;24578;48.264;11.436;2024-02-15T00:09:37;96644.97;;;6.65;100.00
13604;BME280;24578;48.264;11.436;2024-02-15T00:15:39;96631.19;;;6.66;100.00
13604;BME280;24578;48.264;11.436;2024-02-15T00:21:43;96637.47;;;6.61;100.00
13604;BME280;24578;48.264;11.436;2024-02-15T00:27:45;96634.38;;;6.54;100.00
13604;BME280;24578;48.264;11.436;2024-02-15T00:33:47;96640.72;;;6.47;100.00
13604;BME280;24578;48.264;11.436;2024-02-15T00:39:49;96645.13;;;6.45;100.00
13604;BME280;24578;48.264;11.436;2024-02-15T00:45:50;96646.94;;;6.43;100.00
13604;BME280;24578;48.264;11.436;2024-02-15T00:51:52;96643.63;;;6.40;100.00
13604;BME280;24578;48.264;11.436;2024-02-15T00:57:54;96638.63;;;6.37;100.00
13604;BME280;24578;48.264;11.436;2024-02-15T01:03:55;96647.00;;;6.41;100.00
13604;BME280;24578;48.264;11.436;2024-02-15T01:09:57;96646.72;;;6.47;100.00
13604;BME280;24578;48.264;11.436;2024-02-15T01:15:59;96645.28;;;6.42;100.00
13604;BME280;24578;48.264;11.436;2024-02-15T01:22:04;96641.47;;;6.31;100.00
13604;BME280;24578;48.264;11.436;2024-02-15T01:28:07;96649.09;;;6.15;100.00
13604;BME280;24578;48.264;11.436;2024-02-15T01:34:09;96646.56;;;5.96;100.00
13604;BME280;24578;48.264;11.436;2024-02-15T01:40:11;96633.16;;;5.70;100.00
13604;BME280;24578;48.264;11.436;2024-02-15T01:46:14;96627.44;;;5.46;100.00
13604;BME280;24578;48.264;11.436;2024-02-15T01:52:17;96633.69;;;5.40;100.00
13604;BME280;24578;48.264;11.436;2024-02-15T01:58:19;96634.41;;;5.44;100.00
13604;BME280;24578;48.264;11.436;2024-02-15T02:04:22;96620.13;;;5.56;100.00
13604;BME280;24578;48.264;11.436;2024-02-15T02:10:24;96625.78;;;5.64;100.00
13604;BME280;24578;48.264;11.436;2024-02-15T02:16:30;96630.59;;;5.70;100.00
13604;BME280;24578;48.264;11.436;2024-02-15T02:22:36;96626.00;;;5.77;100.00
13604;BME280;24578;48.264;11.436;2024-02-15T02:28:39;96621.63;;;5.79;100.00
13604;BME280;24578;48.264;11.436;2024-02-15T02:34:41;96613.78;;;5.82;100.00
13604;BME280;24578;48.264;11.436;2024-02-15T02:40:43;96612.00;;;5.84;100.00
13604;BME280;24578;48.264;11.436;2024-02-15T02:46:44;96604.38;;;5.83;100.00
13604;BME280;24578;48.264;11.436;2024-02-15T02:52:46;96600.13;;;5.82;100.00
13604;BME280;24578;48.264;11.436;2024-02-15T02:58:49;96613.03;;;5.80;100.00
13604;BME280;24578;48.264;11.436;2024-02-15T03:04:52;96601.25;;;5.76;100.00
13604;BME280;24578;48.264;11.436;2024-02-15T03:10:55;96607.44;;;5.72;100.00
13604;BME280;24578;48.264;11.436;2024-02-15T03:16:57;96604.09;;;5.70;100.00
13604;BME280;24578;48.264;11.436;2024-02-15T03:23:00;96603.41;;;5.66;100.00
13604;BME280;24578;48.264;11.436;2024-02-15T03:29:04;96606.03;;;5.64;100.00
13604;BME280;24578;48.264;11.436;2024-02-15T03:35:06;96604.31;;;5.65;100.00
13604;BME280;24578;48.264;11.436;2024-02-15T03:41:08;96603.13;;;5.72;100.00
13604;BME280;24578;48.264;11.436;2024-02-15T03:47:10;96603.97;;;5.73;100.00
13604;BME280;24578;48.264;11.436;2024-02-15T03:53:16;96609.69;;;5.60;100.00
13604;BME280;24578;48.264;11.436;2024-02-15T03:59:21;96610.44;;;5.43;100.00
13604;BME280;24578;48.264;11.436;2024-02-15T04:05:26;96613.31;;;5.37;100.00
13604;BME280;24578;48.264;11.436;2024-02-15T04:11:28;96619.16;;;5.39;100.00
13604;BME280;24578;48.264;11.436;2024-02-15T04:17:29;96612.38;;;5.38;100.00
13604;BME280;24578;48.264;11.436;2024-02-15T04:23:34;96617.03;;;5.30;100.00
13604;BME280;24578;48.264;11.436;2024-02-15T04:29:35;96622.72;;;5.17;100.00
13604;BME280;24578;48.264;11.436;2024-02-15T04:35:38;96614.28;;;4.95;100.00
13604;BME280;24578;48.264;11.436;2024-02-15T04:41:40;96621.25;;;4.72;100.00
13604;BME280;24578;48.264;11.436;2024-02-15T04:47:42;96623.81;;;4.51;100.00
13604;BME280;24578;48.264;11.436;2024-02-15T04:53:45;96623.69;;;4.34;100.00
13604;BME280;24578;48.264;11.436;2024-02-15T04:59:50;96622.72;;;4.16;100.00
13604;BME280;24578;48.264;11.436;2024-02-15T05:05:52;96617.31;;;4.01;100.00
13604;BME280;24578;48.264;11.436;2024-02-15T05:11:54;96624.53;;;3.91;100.00
13604;BME280;24578;48.264;11.436;2024-02-15T05:17:56;96619.03;;;3.78;100.00
13604;BME280;24578;48.264;11.436;2024-02-15T05:23:58;96620.22;;;3.70;100.00
13604;BME280;24578;48.264;11.436;2024-02-15T05:30:00;96617.25;;;3.58;100.00
13604;BME280;24578;48.264;11.436;2024-02-15T05:36:02;96613.41;;;3.46;100.00
13604;BME280;24578;48.264;11.436;2024-02-15T05:42:04;96619.06;;;3.32;100.00
13604;BME280;24578;48.264;11.436;2024-02-15T05:48:06;96617.91;;;3.17;100.00
13604;BME280;24578;48.264;11.436;2024-02-15T05:54:09;96625.06;;;3.08;100.00
13604;BME280;24578;48.264;11.436;2024-02-15T06:00:11;96622.06;;;2.96;100.00
13604;BME280;24578;48.264;11.436;2024-02-15T06:06:23;96619.06;;;2.85;100.00
13604;BME280;24578;48.264;11.436;2024-02-15T06:12:31;96635.50;;;2.78;100.00
13604;BME280;24578;48.264;11.436;2024-02-15T06:18:33;96636.38;;;2.77;100.00
13604;BME280;24578;48.264;11.436;2024-02-15T06:24:35;96638.72;;;2.83;100.00
13604;BME280;24578;48.264;11.436;2024-02-15T06:30:37;96636.63;;;2.94;100.00
13604;BME280;24578;48.264;11.436;2024-02-15T06:36:59;96647.88;;;3.14;100.00
13604;BME280;24578;48.264;11.436;2024-02-15T06:43:19;96648.75;;;3.37;100.00
13604;BME280;24578;48.264;11.436;2024-02-15T06:49:21;96654.81;;;3.58;100.00
13604;BME280;24578;48.264;11.436;2024-02-15T06:55:23;96648.06;;;3.79;100.00
13604;BME280;24578;48.264;11.436;2024-02-15T07:01:24;96649.72;;;4.02;100.00
13604;BME280;24578;48.264;11.436;2024-02-15T07:07:27;96637.97;;;4.19;100.00
13604;BME280;24578;48.264;11.436;2024-02-15T07:13:29;96644.75;;;4.40;100.00
13604;BME280;24578;48.264;11.436;2024-02-15T07:19:30;96646.63;;;4.78;100.00
13604;BME280;24578;48.264;11.436;2024-02-15T07:25:36;96634.44;;;5.23;100.00
13604;BME280;24578;48.264;11.436;2024-02-15T07:31:37;96624.88;;;5.65;100.00
13604;BME280;24578;48.264;11.436;2024-02-15T07:37:50;96631.00;;;5.99;100.00
13604;BME280;24578;48.264;11.436;2024-02-15T07:43:52;96620.00;;;6.50;100.00
13604;BME280;24578;48.264;11.436;2024-02-15T07:49:56;96614.47;;;7.09;100.00
13604;BME280;24578;48.264;11.436;2024-02-15T07:55:59;96617.09;;;7.73;100.00
13604;BME280;24578;48.264;11.436;2024-02-15T08:02:01;96617.00;;;8.67;100.00
13604;BME280;24578;48.264;11.436;2024-02-15T08:08:03;96607.66;;;10.34;100.00
13604;BME280;24578;48.264;11.436;2024-02-15T08:14:05;96599.81;;;12.60;77.10
13604;BME280;24578;48.264;11.436;2024-02-15T08:20:15;96584.53;;;14.79;62.07
13604;BME280;24578;48.264;11.436;2024-02-15T08:26:18;96586.16;;;15.01;56.83
13604;BME280;24578;48.264;11.436;2024-02-15T08:32:20;96566.22;;;16.11;51.84
13604;BME280;24578;48.264;11.436;2024-02-15T08:38:22;96559.56;;;17.69;46.65
13604;BME280;24578;48.264;11.436;2024-02-15T08:44:25;96552.81;;;18.83;44.73
13604;BME280;24578;48.264;11.436;2024-02-15T08:50:26;96551.69;;;19.12;43.30
13604;BME280;24578;48.264;11.436;2024-02-15T08:56:29;96543.53;;;19.75;42.59
13604;BME280;24578;48.264;11.436;2024-02-15T09:02:31;96535.56;;;20.26;41.51
13604;BME280;24578;48.264;11.436;2024-02-15T09:08:34;96538.88;;;21.49;39.99
13604;BME280;24578;48.264;11.436;2024-02-15T09:14:36;96536.13;;;21.42;40.21
13604;BME280;24578;48.264;11.436;2024-02-15T09:20:38;96528.63;;;21.94;38.75
13604;BME280;24578;48.264;11.436;2024-02-15T09:26:46;96522.81;;;21.75;39.00
13604;BME280;24578;48.264;11.436;2024-02-15T09:32:47;96520.66;;;22.79;37.88
13604;BME280;24578;48.264;11.436;2024-02-15T09:38:49;96498.28;;;23.56;35.78
13604;BME280;24578;48.264;11.436;2024-02-15T09:44:51;96491.44;;;24.56;34.56
13604;BME280;24578;48.264;11.436;2024-02-15T09:50:54;96483.59;;;24.69;33.41
13604;BME280;24578;48.264;11.436;2024-02-15T09:57:01;96476.22;;;25.00;32.26
13604;BME280;24578;48.264;11.436;2024-02-15T10:03:06;96473.56;;;25.42;32.24
13604;BME280;24578;48.264;11.436;2024-02-15T10:09:30;96479.19;;;25.18;32.39
13604;BME280;24578;48.264;11.436;2024-02-15T10:15:39;96471.13;;;24.91;33.57
13604;BME280;24578;48.264;11.436;2024-02-15T10:21:42;96463.06;;;26.56;32.05
13604;BME280;24578;48.264;11.436;2024-02-15T10:27:48;96452.59;;;27.40;30.72
13604;BME280;24578;48.264;11.436;2024-02-15T10:33:49;96448.97;;;26.69;32.43
13604;BME280;24578;48.264;11.436;2024-02-15T10:40:05;96443.50;;;26.37;32.38
13604;BME280;24578;48.264;11.436;2024-02-15T10:46:11;96441.00;;;26.69;32.76
13604;BME280;24578;48.264;11.436;2024-02-15T10:52:13;96426.31;;;26.59;32.81
13604;BME280;24578;48.264;11.436;2024-02-15T10:58:19;96415.09;;;26.64;32.43
13604;BME280;24578;48.264;11.436;2024-02-15T11:04:22;96413.97;;;26.99;32.50
13604;BME280;24578;48.264;11.436;2024-02-15T11:10:25;96395.56;;;26.38;31.77
13604;BME280;24578;48.264;11.436;2024-02-15T11:16:41;96385.75;;;26.39;33.28
13604;BME280;24578;48.264;11.436;2024-02-15T11:22:56;96377.41;;;25.48;33.35
13604;BME280;24578;48.264;11.436;2024-02-15T11:28:58;96361.84;;;25.11;33.99
13604;BME280;24578;48.264;11.436;2024-02-15T11:35:08;96359.44;;;24.26;33.61
13604;BME280;24578;48.264;11.436;2024-02-15T11:41:18;96353.13;;;24.27;33.90
13604;BME280;24578;48.264;11.436;2024-02-15T11:47:19;96347.56;;;24.15;34.04
13604;BME280;24578;48.264;11.436;2024-02-15T11:53:21;96337.38;;;24.54;34.83
13604;BME280;24578;48.264;11.436;2024-02-15T11:59:23;96330.78;;;23.72;35.95
13604;BME280;24578;48.264;11.436;2024-02-15T12:05:33;96328.66;;;22.44;37.16
13604;BME280;24578;48.264;11.436;2024-02-15T12:11:58;96325.97;;;20.99;38.57
13604;BME280;24578;48.264;11.436;2024-02-15T12:18:19;96315.09;;;20.39;40.32
13604;BME280;24578;48.264;11.436;2024-02-15T12:24:39;96306.88;;;20.34;41.12
13604;BME280;24578;48.264;11.436;2024-02-15T12:30:41;96298.66;;;20.46;40.45
13604;BME280;24578;48.264;11.436;2024-02-15T12:36:43;96287.38;;;20.92;39.69
13604;BME280;24578;48.264;11.436;2024-02-15T12:42:45;96282.44;;;20.97;39.33
13604;BME280;24578;48.264;11.436;2024-02-15T12:48:48;96281.66;;;21.35;38.69
13604;BME280;24578;48.264;11.436;2024-02-15T12:55:06;96267.94;;;21.01;38.68
13604;BME280;24578;48.264;11.436;2024-02-15T13:01:09;96262.88;;;20.68;39.36
13604;BME280;24578;48.264;11.436;2024-02-15T13:07:13;96261.50;;;20.80;38.62
13604;BME280;24578;48.264;11.436;2024-02-15T13:13:15;96256.09;;;21.20;38.27
13604;BME280;24578;48.264;11.436;2024-02-15T13:19:17;96249.34;;;21.03;38.41
13604;BME280;24578;48.264;11.436;2024-02-15T13:25:19;96238.41;;;21.82;37.84
13604;BME280;24578;48.264;11.436;2024-02-15T13:31:23;96239.38;;;21.51;37.35
13604;BME280;24578;48.264;11.436;2024-02-15T13:37:25;96237.34;;;21.38;38.01
13604;BME280;24578;48.264;11.436;2024-02-15T13:43:27;96234.22;;;21.20;38.24
13604;BME280;24578;48.264;11.436;2024-02-15T13:49:32;96224.56;;;20.65;40.21
13604;BME280;24578;48.264;11.436;2024-02-15T13:55:37;96220.91;;;20.51;41.54
13604;BME280;24578;48.264;11.436;2024-02-15T14:01:38;96222.88;;;20.18;42.24
13604;BME280;24578;48.264;11.436;2024-02-15T14:07:47;96214.44;;;19.99;43.12
13604;BME280;24578;48.264;11.436;2024-02-15T14:13:49;96215.06;;;20.01;42.86
13604;BME280;24578;48.264;11.436;2024-02-15T14:19:56;96220.41;;;19.68;43.94
13604;BME280;24578;48.264;11.436;2024-02-15T14:25:58;96210.28;;;19.48;44.48
13604;BME280;24578;48.264;11.436;2024-02-15T14:32:02;96215.59;;;19.15;45.74
13604;BME280;24578;48.264;11.436;2024-02-15T14:38:22;96209.34;;;19.00;45.56
13604;BME280;24578;48.264;11.436;2024-02-15T14:44:26;96211.63;;;18.70;46.28
13604;BME280;24578;48.264;11.436;2024-02-15T14:50:27;96215.09;;;18.11;47.00
13604;BME280;24578;48.264;11.436;2024-02-15T14:56:30;96223.88;;;17.41;49.22
13604;BME280;24578;48.264;11.436;2024-02-15T15:02:44;96209.41;;;16.84;50.55
13604;BME280;24578;48.264;11.436;2024-02-15T15:08:48;96210.22;;;16.66;50.91
13604;BME280;24578;48.264;11.436;2024-02-15T15:15:08;96206.50;;;16.51;51.61
13604;BME280;24578;48.264;11.436;2024-02-15T15:21:18;96203.81;;;16.61;51.43
13604;BME280;24578;48.264;11.436;2024-02-15T15:27:20;96196.59;;;16.08;53.10
13604;BME280;24578;48.264;11.436;2024-02-15T15:33:22;96195.16;;;15.96;53.24
13604;BME280;24578;48.264;11.436;2024-02-15T15:39:25;96200.25;;;15.50;55.22
13604;BME280;24578;48.264;11.436;2024-02-15T15:45:28;96205.25;;;15.23;55.73
13604;BME280;24578;48.264;11.436;2024-02-15T15:51:31;96206.13;;;14.95;57.59
13604;BME280;24578;48.264;11.436;2024-02-15T15:57:34;96205.88;;;14.68;59.48
13604;BME280;24578;48.264;11.436;2024-02-15T16:03:36;96188.28;;;14.21;61.71
13604;BME280;24578;48.264;11.436;2024-02-15T16:09:39;96201.88;;;13.84;64.59
13604;BME280;24578;48.264;11.436;2024-02-15T16:15:51;96186.69;;;13.48;67.50
13604;BME280;24578;48.264;11.436;2024-02-15T16:21:57;96185.94;;;13.15;71.18
13604;BME280;24578;48.264;11.436;2024-02-15T16:28:00;96192.59;;;12.87;74.28
13604;BME280;24578;48.264;11.436;2024-02-15T16:34:02;96201.25;;;12.55;78.29
13604;BME280;24578;48.264;11.436;2024-02-15T16:40:04;96205.34;;;12.25;81.86
13604;BME280;24578;48.264;11.436;2024-02-15T16:46:08;96209.16;;;11.98;85.68
13604;BME280;24578;48.264;11.436;2024-02-15T16:52:10;96202.34;;;11.63;91.32
13604;BME280;24578;48.264;11.436;2024-02-15T16:58:12;96204.94;;;11.29;97.89
13604;BME280;24578;48.264;11.436;2024-02-15T17:04:14;96215.47;;;11.03;99.83
13604;BME280;24578;48.264;11.436;2024-02-15T17:10:20;96208.47;;;11.27;100.00
13604;BME280;24578;48.264;11.436;2024-02-15T17:16:23;96213.38;;;11.08;100.00
13604;BME280;24578;48.264;11.436;2024-02-15T17:22:25;96201.56;;;10.92;100.00
13604;BME280;24578;48.264;11.436;2024-02-15T17:28:29;96207.16;;;10.75;100.00
13604;BME280;24578;48.264;11.436;2024-02-15T17:34:31;96211.31;;;10.53;100.00
13604;BME280;24578;48.264;11.436;2024-02-15T17:40:34;96208.47;;;10.32;100.00
13604;BME280;24578;48.264;11.436;2024-02-15T17:46:37;96214.13;;;10.13;100.00
13604;BME280;24578;48.264;11.436;2024-02-15T17:52:38;96213.69;;;9.95;100.00
13604;BME280;24578;48.264;11.436;2024-02-15T17:58:41;96199.44;;;9.76;100.00
13604;BME280;24578;48.264;11.436;2024-02-15T18:04:43;96198.75;;;9.61;100.00
13604;BME280;24578;48.264;11.436;2024-02-15T18:10:46;96192.16;;;9.44;100.00
13604;BME280;24578;48.264;11.436;2024-02-15T18:16:48;96192.59;;;9.25;100.00
13604;BME280;24578;48.264;11.436;2024-02-15T18:22:52;96200.66;;;9.07;100.00
13604;BME280;24578;48.264;11.436;2024-02-15T18:28:54;96203.41;;;8.91;100.00
13604;BME280;24578;48.264;11.436;2024-02-15T18:34:55;96209.88;;;8.71;100.00
13604;BME280;24578;48.264;11.436;2024-02-15T18:40:59;96198.09;;;8.54;100.00
13604;BME280;24578;48.264;11.436;2024-02-15T18:47:00;96192.31;;;8.36;100.00
13604;BME280;24578;48.264;11.436;2024-02-15T18:53:02;96184.00;;;8.18;100.00
13604;BME280;24578;48.264;11.436;2024-02-15T18:59:05;96176.13;;;8.06;100.00
13604;BME280;24578;48.264;11.436;2024-02-15T19:05:07;96176.06;;;7.93;100.00
13604;BME280;24578;48.264;11.436;2024-02-15T19:11:21;96177.00;;;7.78;100.00
13604;BME280;24578;48.264;11.436;2024-02-15T19:17:24;96177.13;;;7.62;100.00
13604;BME280;24578;48.264;11.436;2024-02-15T19:23:27;96179.81;;;7.46;100.00
13604;BME280;24578;48.264;11.436;2024-02-15T19:29:29;96173.13;;;7.29;100.00
13604;BME280;24578;48.264;11.436;2024-02-15T19:35:31;96164.25;;;7.19;100.00
13604;BME280;24578;48.264;11.436;2024-02-15T19:41:33;96162.81;;;7.14;100.00
13604;BME280;24578;48.264;11.436;2024-02-15T19:47:34;96165.84;;;7.07;100.00
13604;BME280;24578;48.264;11.436;2024-02-15T19:53:36;96162.88;;;6.98;100.00
13604;BME280;24578;48.264;11.436;2024-02-15T19:59:38;96154.81;;;6.90;100.00
13604;BME280;24578;48.264;11.436;2024-02-15T20:05:40;96160.41;;;6.82;100.00
13604;BME280;24578;48.264;11.436;2024-02-15T20:11:42;96153.50;;;6.83;100.00
13604;BME280;24578;48.264;11.436;2024-02-15T20:17:44;96155.31;;;6.81;100.00
13604;BME280;24578;48.264;11.436;2024-02-15T20:23:46;96152.22;;;6.76;100.00
13604;BME280;24578;48.264;11.436;2024-02-15T20:29:48;96148.59;;;6.64;100.00
13604;BME280;24578;48.264;11.436;2024-02-15T20:35:51;96149.09;;;6.54;100.00
13604;BME280;24578;48.264;11.436;2024-02-15T20:41:54;96143.00;;;6.41;100.00
13604;BME280;24578;48.264;11.436;2024-02-15T20:47:55;96143.66;;;6.30;100.00
13604;BME280;24578;48.264;11.436;2024-02-15T20:53:57;96140.19;;;6.15;100.00
13604;BME280;24578;48.264;11.436;2024-02-15T20:59:59;96140.78;;;6.04;100.00
13604;BME280;24578;48.264;11.436;2024-02-15T21:06:02;96136.03;;;5.97;100.00
13604;BME280;24578;48.264;11.436;2024-02-15T21:12:04;96138.97;;;5.90;100.00
13604;BME280;24578;48.264;11.436;2024-02-15T21:18:06;96130.94;;;5.81;100.00
13604;BME280;24578;48.264;11.436;2024-02-15T21:24:08;96137.13;;;5.76;100.00
13604;BME280;24578;48.264;11.436;2024-02-15T21:30:10;96138.56;;;5.66;100.00
13604;BME280;24578;48.264;11.436;2024-02-15T21:36:13;96141.03;;;5.52;100.00
13604;BME280;24578;48.264;11.436;2024-02-15T21:42:16;96133.06;;;5.40;100.00
13604;BME280;24578;48.264;11.436;2024-02-15T21:48:17;96128.75;;;5.25;100.00
13604;BME280;24578;48.264;11.436;2024-02-15T21:54:19;96121.78;;;5.11;100.00
13604;BME280;24578;48.264;11.436;2024-02-15T22:00:22;96123.31;;;4.97;100.00
13604;BME280;24578;48.264;11.436;2024-02-15T22:06:23;96117.75;;;4.89;100.00
13604;BME280;24578;48.264;11.436;2024-02-15T22:12:26;96122.28;;;4.84;100.00
13604;BME280;24578;48.264;11.436;2024-02-15T22:18:28;96123.75;;;4.72;100.00
13604;BME280;24578;48.264;11.436;2024-02-15T22:24:30;96105.66;;;4.57;100.00
13604;BME280;24578;48.264;11.436;2024-02-15T22:30:32;96100.69;;;4.54;100.00
13604;BME280;24578;48.264;11.436;2024-02-15T22:36:34;96102.78;;;4.46;100.00
13604;BME280;24578;48.264;11.436;2024-02-15T22:42:36;96109.28;;;4.36;100.00
13604;BME280;24578;48.264;11.436;2024-02-15T22:48:41;96110.56;;;4.27;100.00
13604;BME280;24578;48.264;11.436;2024-02-15T22:54:47;96105.00;;;4.19;100.00
13604;BME280;24578;48.264;11.436;2024-02-15T23:00:51;96103.63;;;4.11;100.00
13604;BME280;24578;48.264;11.436;2024-02-15T23:06:52;96104.63;;;4.09;100.00
13604;BME280;24578;48.264;11.436;2024-02-15T23:12:54;96097.31;;;4.01;100.00
13604;BME280;24578;48.264;11.436;2024-02-15T23:18:56;96091.47;;;3.97;100.00
13604;BME280;24578;48.264;11.436;2024-02-15T23:24:58;96090.91;;;3.92;100.00
13604;BME280;24578;48.264;11.436;2024-02-15T23:31:03;96089.47;;;3.87;100.00
13604;BME280;24578;48.264;11.436;2024-02-15T23:37:05;96092.22;;;3.82;100.00
13604;BME280;24578;48.264;11.436;2024-02-15T23:43:26;96087.53;;;3.73;100.00
13604;BME280;24578;48.264;11.436;2024-02-15T23:49:27;96081.06;;;3.65;100.00
13604;BME280;24578;48.264;11.436;2024-02-15T23:55:29;96096.69;;;3.59;100.00
